createdAt,value
2018-06-04T00:00:06.368Z,99.90
2018-06-04T00:02:34.396Z,99.90
2018-06-04T00:05:02.520Z,99.90
2018-06-04T00:07:30.513Z,99.90
2018-06-04T00:09:58.593Z,99.90
2018-06-04T00:12:26.643Z,99.90
2018-06-04T00:14:54.674Z,99.90
2018-06-04T00:17:22.694Z,99.90
2018-06-04T00:19:50.726Z,99.90
2018-06-04T00:22:18.742Z,99.90
2018-06-04T00:24:46.826Z,99.90
2018-06-04T00:27:14.846Z,99.90
2018-06-04T00:29:42.933Z,99.90
2018-06-04T00:32:10.959Z,99.90
2018-06-04T00:34:39.074Z,99.90
2018-06-04T00:37:07.072Z,99.90
2018-06-04T00:39:35.173Z,99.90
2018-06-04T00:42:03.258Z,99.90
2018-06-04T00:44:31.295Z,99.90
2018-06-04T00:46:59.436Z,99.90
2018-06-04T00:49:27.443Z,99.90
2018-06-04T00:51:55.540Z,99.90
2018-06-04T00:54:23.589Z,99.90
2018-06-04T00:56:51.638Z,99.90
2018-06-04T00:59:19.732Z,99.90
2018-06-04T01:01:47.766Z,99.90
2018-06-04T01:04:15.810Z,99.90
2018-06-04T01:06:43.843Z,99.90
2018-06-04T01:09:11.985Z,99.90
2018-06-04T01:11:39.994Z,99.90
2018-06-04T01:16:36.100Z,99.90
2018-06-04T01:19:04.138Z,99.90
2018-06-04T01:21:32.212Z,99.90
2018-06-04T01:24:00.264Z,99.90
2018-06-04T01:26:28.389Z,99.90
2018-06-04T01:28:56.393Z,99.90
2018-06-04T01:31:24.406Z,99.90
2018-06-04T01:33:52.491Z,99.90
2018-06-04T01:36:20.541Z,99.90
2018-06-04T01:38:48.553Z,99.90
2018-06-04T01:41:16.698Z,99.90
2018-06-04T01:43:44.709Z,99.90
2018-06-04T01:46:12.740Z,99.90
2018-06-04T01:48:40.767Z,99.90
2018-06-04T01:51:08.904Z,99.90
2018-06-04T01:53:36.957Z,99.90
2018-06-04T01:56:05.033Z,99.90
2018-06-04T01:58:33.081Z,99.90
2018-06-04T02:01:01.169Z,99.90
2018-06-04T02:03:29.237Z,99.90
2018-06-04T02:05:57.293Z,99.90
2018-06-04T02:08:25.386Z,99.90
2018-06-04T02:10:53.438Z,99.90
2018-06-04T02:13:21.564Z,99.90
2018-06-04T02:15:49.602Z,99.90
2018-06-04T02:18:17.643Z,99.90
2018-06-04T02:20:45.750Z,99.90
2018-06-04T02:23:13.752Z,99.90
2018-06-04T02:25:41.790Z,99.90
2018-06-04T02:28:09.806Z,99.90
2018-06-04T02:30:37.934Z,99.90
2018-06-04T02:33:06.042Z,99.90
2018-06-04T02:35:34.521Z,99.90
2018-06-04T02:38:02.525Z,99.90
2018-06-04T02:40:30.634Z,99.90
2018-06-04T02:42:58.640Z,99.90
2018-06-04T02:45:26.794Z,99.90
2018-06-04T02:47:54.814Z,99.90
2018-06-04T02:50:22.954Z,99.90
2018-06-04T02:52:50.997Z,99.90
2018-06-04T02:55:19.098Z,99.90
2018-06-04T02:57:47.084Z,99.90
2018-06-04T03:00:15.222Z,99.90
2018-06-04T03:02:43.239Z,99.90
2018-06-04T03:05:11.298Z,99.90
2018-06-04T03:07:39.331Z,99.90
2018-06-04T03:10:07.422Z,99.90
2018-06-04T03:12:35.577Z,99.90
2018-06-04T03:15:03.655Z,99.90
2018-06-04T03:17:31.678Z,99.90
2018-06-04T03:22:27.591Z,99.90
2018-06-04T03:24:55.629Z,99.90
2018-06-04T03:27:23.737Z,99.90
2018-06-04T03:29:51.782Z,99.90
2018-06-04T03:32:19.802Z,99.90
2018-06-04T03:34:47.885Z,99.90
2018-06-04T03:37:15.884Z,99.90
2018-06-04T03:39:43.990Z,99.90
2018-06-04T03:42:12.046Z,99.90
2018-06-04T03:44:40.060Z,99.90
2018-06-04T03:47:08.193Z,99.90
2018-06-04T03:49:36.226Z,99.90
2018-06-04T03:52:04.312Z,99.90
2018-06-04T03:54:32.293Z,99.90
2018-06-04T03:57:00.461Z,99.90
2018-06-04T03:59:28.461Z,99.90
2018-06-04T04:01:56.630Z,99.90
2018-06-04T04:04:24.716Z,99.90
2018-06-04T04:06:52.874Z,99.90
2018-06-04T04:09:20.928Z,99.90
2018-06-04T04:11:49.054Z,99.90
2018-06-04T04:14:17.045Z,99.90
2018-06-04T04:16:45.110Z,99.90
2018-06-04T04:19:13.130Z,99.90
2018-06-04T04:21:41.167Z,99.90
2018-06-04T04:24:09.211Z,99.90
2018-06-04T04:26:37.290Z,99.90
2018-06-04T04:29:05.322Z,99.90
2018-06-04T04:31:33.367Z,99.90
2018-06-04T04:34:01.555Z,99.90
2018-06-04T04:36:32.093Z,99.90
2018-06-04T04:39:01.948Z,99.90
2018-06-04T04:41:29.985Z,99.90
2018-06-04T04:43:58.186Z,99.90
2018-06-04T04:46:26.271Z,99.90
2018-06-04T04:48:54.302Z,99.90
2018-06-04T04:51:22.375Z,99.90
2018-06-04T04:53:50.420Z,99.90
2018-06-04T04:56:18.509Z,99.90
2018-06-04T04:58:46.526Z,99.90
2018-06-04T05:01:14.562Z,99.90
2018-06-04T05:03:42.662Z,99.90
2018-06-04T05:06:10.702Z,99.90
2018-06-04T05:08:38.809Z,99.90
2018-06-04T05:11:06.805Z,99.90
2018-06-04T05:13:34.832Z,99.90
2018-06-04T05:16:02.883Z,99.90
2018-06-04T05:18:30.914Z,99.90
2018-06-04T05:20:59.045Z,99.90
2018-06-04T05:23:27.106Z,99.90
2018-06-04T05:25:55.178Z,99.90
2018-06-04T05:28:23.228Z,99.90
2018-06-04T05:30:51.227Z,99.90
2018-06-04T05:33:19.293Z,99.90
2018-06-04T05:35:47.454Z,99.90
2018-06-04T05:38:15.501Z,99.90
2018-06-04T05:40:43.506Z,99.90
2018-06-04T05:43:11.553Z,99.90
2018-06-04T05:45:39.581Z,99.90
2018-06-04T05:48:07.758Z,99.90
2018-06-04T05:50:35.802Z,99.90
2018-06-04T05:53:03.872Z,99.90
2018-06-04T05:55:31.948Z,99.90
2018-06-04T05:58:00.020Z,99.90
2018-06-04T06:00:28.120Z,99.90
2018-06-04T06:02:56.119Z,99.90
2018-06-04T06:05:24.230Z,99.90
2018-06-04T06:07:52.248Z,99.90
2018-06-04T06:10:20.413Z,99.90
2018-06-04T06:12:48.428Z,99.90
2018-06-04T06:15:16.438Z,99.90
2018-06-04T06:17:44.509Z,99.90
2018-06-04T06:20:12.544Z,99.90
2018-06-04T06:22:40.574Z,99.90
2018-06-04T06:25:08.781Z,99.90
2018-06-04T06:27:36.777Z,99.90
2018-06-04T06:30:04.860Z,99.90
2018-06-04T06:32:32.921Z,99.90
2018-06-04T06:35:00.991Z,99.90
2018-06-04T06:37:29.065Z,99.90
2018-06-04T06:39:57.101Z,99.90
2018-06-04T06:42:25.128Z,99.90
2018-06-04T06:44:53.177Z,99.90
2018-06-04T06:47:21.259Z,99.90
2018-06-04T06:49:49.330Z,99.90
2018-06-04T06:52:17.401Z,99.90
2018-06-04T06:54:45.485Z,99.90
2018-06-04T06:57:13.498Z,99.90
2018-06-04T06:59:41.619Z,99.90
2018-06-04T07:02:09.639Z,99.90
2018-06-04T07:04:37.700Z,99.90
2018-06-04T07:07:05.769Z,99.90
2018-06-04T07:09:33.799Z,99.90
2018-06-04T07:12:01.826Z,99.90
2018-06-04T07:14:30.042Z,99.90
2018-06-04T07:16:58.016Z,99.90
2018-06-04T07:19:26.086Z,99.90
2018-06-04T07:21:54.156Z,99.90
2018-06-04T07:24:22.206Z,99.90
2018-06-04T07:26:50.275Z,99.90
2018-06-04T07:29:18.252Z,99.90
2018-06-04T07:31:46.288Z,99.90
2018-06-04T07:34:14.396Z,99.90
2018-06-04T07:36:42.463Z,99.90
2018-06-04T07:39:10.550Z,99.90
2018-06-04T07:41:38.593Z,99.90
2018-06-04T07:44:06.703Z,99.90
2018-06-04T07:46:34.762Z,99.90
2018-06-04T07:49:02.811Z,99.90
2018-06-04T07:51:30.866Z,99.90
2018-06-04T07:53:58.984Z,99.90
2018-06-04T07:56:27.006Z,99.90
2018-06-04T07:58:55.042Z,99.90
2018-06-04T08:01:23.126Z,99.90
2018-06-04T08:03:51.126Z,99.90
2018-06-04T08:06:19.293Z,99.90
2018-06-04T08:08:47.286Z,99.90
2018-06-04T08:11:15.342Z,99.90
2018-06-04T08:13:43.456Z,99.90
2018-06-04T08:16:11.544Z,99.90
2018-06-04T08:18:39.605Z,99.90
2018-06-04T08:21:07.643Z,99.90
2018-06-04T08:23:35.683Z,99.90
2018-06-04T08:26:03.704Z,99.90
2018-06-04T08:28:31.757Z,99.90
2018-06-04T08:30:59.861Z,99.90
2018-06-04T08:33:27.920Z,99.90
2018-06-04T08:35:56.040Z,99.90
2018-06-04T08:38:24.144Z,99.90
2018-06-04T08:40:52.154Z,99.90
2018-06-04T08:43:20.165Z,99.90
2018-06-04T08:45:48.308Z,99.90
2018-06-04T08:48:16.313Z,99.90
2018-06-04T08:50:44.438Z,99.90
2018-06-04T08:53:12.530Z,99.90
2018-06-04T08:55:40.584Z,99.90
2018-06-04T08:58:08.689Z,99.90
2018-06-04T09:00:36.837Z,99.90
2018-06-04T09:03:04.938Z,99.90
2018-06-04T09:05:32.966Z,99.90
2018-06-04T09:08:00.977Z,99.90
2018-06-04T09:10:29.004Z,99.90
2018-06-04T09:12:57.124Z,99.90
2018-06-04T09:15:25.171Z,99.90
2018-06-04T09:17:53.215Z,99.90
2018-06-04T09:20:21.264Z,99.90
2018-06-04T09:22:49.282Z,99.90
2018-06-04T09:25:17.304Z,99.90
2018-06-04T09:30:13.109Z,99.90
2018-06-04T09:32:41.161Z,99.90
2018-06-04T09:35:09.239Z,99.90
2018-06-04T09:37:37.313Z,99.90
2018-06-04T09:40:05.398Z,99.90
2018-06-04T09:42:33.350Z,99.90
2018-06-04T09:45:01.419Z,99.90
2018-06-04T09:47:29.486Z,99.90
2018-06-04T09:49:57.481Z,99.90
2018-06-04T09:52:25.536Z,99.90
2018-06-04T09:54:53.609Z,99.90
2018-06-04T09:57:21.642Z,99.90
2018-06-04T09:59:49.749Z,99.90
2018-06-04T10:02:17.824Z,99.90
2018-06-04T10:04:45.931Z,99.90
2018-06-04T10:07:13.982Z,99.90
2018-06-04T10:09:42.023Z,99.90
2018-06-04T10:12:10.104Z,99.90
2018-06-04T10:14:38.144Z,99.90
2018-06-04T10:17:06.259Z,99.90
2018-06-04T10:19:34.310Z,99.90
2018-06-04T10:22:02.411Z,99.90
2018-06-04T10:24:30.442Z,99.90
2018-06-04T10:26:58.510Z,99.90
2018-06-04T10:29:26.549Z,99.90
2018-06-04T10:31:54.598Z,99.90
2018-06-04T10:34:22.614Z,99.90
2018-06-04T10:36:50.660Z,99.90
2018-06-04T10:39:18.669Z,99.90
2018-06-04T10:41:46.774Z,99.90
2018-06-04T10:44:14.834Z,99.90
2018-06-04T10:46:42.928Z,99.90
2018-06-04T10:49:11.023Z,99.90
2018-06-04T10:51:39.063Z,99.90
2018-06-04T10:54:07.169Z,99.90
2018-06-04T10:56:35.164Z,99.90
2018-06-04T10:59:04.069Z,99.90
2018-06-04T11:01:32.183Z,99.90
2018-06-04T11:04:00.206Z,99.90
2018-06-04T11:06:28.278Z,99.90
2018-06-04T11:08:56.328Z,99.90
2018-06-04T11:11:24.544Z,99.90
2018-06-04T11:13:52.548Z,99.90
2018-06-04T11:16:20.602Z,99.90
2018-06-04T11:18:48.718Z,99.90
2018-06-04T11:21:16.702Z,99.90
2018-06-04T11:23:44.726Z,99.90
2018-06-04T11:26:12.753Z,99.90
2018-06-04T11:28:40.774Z,99.90
2018-06-04T11:31:08.846Z,99.90
2018-06-04T11:33:36.872Z,99.90
2018-06-04T11:36:04.929Z,99.90
2018-06-04T11:38:33.062Z,99.90
2018-06-04T11:41:01.089Z,99.90
2018-06-04T11:43:29.107Z,99.90
2018-06-04T11:45:57.266Z,99.90
2018-06-04T11:48:25.357Z,99.90
2018-06-04T11:50:53.520Z,99.90
2018-06-04T11:53:21.585Z,99.90
2018-06-04T11:55:49.630Z,99.90
2018-06-04T11:58:17.738Z,99.90
2018-06-04T12:00:45.797Z,99.90
2018-06-04T12:03:13.877Z,99.90
2018-06-04T12:05:41.958Z,99.90
2018-06-04T12:08:10.052Z,99.90
2018-06-04T12:10:38.073Z,99.90
2018-06-04T12:15:33.829Z,99.90
2018-06-04T12:18:01.909Z,99.90
2018-06-04T12:20:29.968Z,99.90
2018-06-04T12:22:58.045Z,99.90
2018-06-04T12:25:26.112Z,98.40
2018-06-04T12:27:54.143Z,93.30
2018-06-04T12:30:22.160Z,82.70
2018-06-04T12:32:50.224Z,75.20
2018-06-04T12:35:18.254Z,73.10
2018-06-04T12:37:46.381Z,69.00
2018-06-04T12:40:14.409Z,66.30
2018-06-04T12:42:42.443Z,67.80
2018-06-04T12:45:10.460Z,67.10
2018-06-04T12:47:38.530Z,68.00
2018-06-04T12:52:34.356Z,62.40
2018-06-04T12:55:02.388Z,58.80
2018-06-04T12:57:30.441Z,57.10
2018-06-04T12:59:58.521Z,56.70
2018-06-04T13:02:26.557Z,53.50
2018-06-04T13:04:54.773Z,55.00
2018-06-04T13:07:22.688Z,58.60
2018-06-04T13:09:50.809Z,64.20
2018-06-04T13:12:18.822Z,67.80
2018-06-04T13:14:46.849Z,70.00
2018-06-04T13:17:14.861Z,72.70
2018-06-04T13:19:42.888Z,73.60
2018-06-04T13:22:10.970Z,67.80
2018-06-04T13:24:39.007Z,65.40
2018-06-04T13:27:07.026Z,64.60
2018-06-04T13:29:35.099Z,60.20
2018-06-04T13:32:03.137Z,61.00
2018-06-04T13:34:31.259Z,61.50
2018-06-04T13:36:59.244Z,62.40
2018-06-04T13:39:27.310Z,59.70
2018-06-04T13:41:55.292Z,58.40
2018-06-04T13:44:23.358Z,57.60
2018-06-04T13:46:51.493Z,56.00
2018-06-04T13:49:19.565Z,55.40
2018-06-04T13:51:47.606Z,54.20
2018-06-04T13:54:15.708Z,54.80
2018-06-04T13:56:43.732Z,52.20
2018-06-04T13:59:11.810Z,53.30
2018-06-04T14:01:39.843Z,52.80
2018-06-04T14:04:07.872Z,51.40
2018-06-04T14:06:35.879Z,50.80
2018-06-04T14:09:05.751Z,49.70
2018-06-04T14:11:33.746Z,49.20
2018-06-04T14:14:01.778Z,49.70
2018-06-04T14:16:29.794Z,51.50
2018-06-04T14:18:57.830Z,50.70
2018-06-04T14:21:25.930Z,51.90
2018-06-04T14:23:54.005Z,56.10
2018-06-04T14:26:22.108Z,56.30
2018-06-04T14:28:50.247Z,55.30
2018-06-04T14:31:18.358Z,56.60
2018-06-04T14:33:46.403Z,57.40
2018-06-04T14:36:14.363Z,55.90
2018-06-04T14:38:42.429Z,56.40
2018-06-04T14:41:10.543Z,55.40
2018-06-04T14:43:38.557Z,57.70
2018-06-04T14:46:06.667Z,59.30
2018-06-04T14:48:34.841Z,58.00
2018-06-04T14:51:02.869Z,57.20
2018-06-04T14:53:31.008Z,54.30
2018-06-04T14:55:59.009Z,52.90
2018-06-04T14:58:27.043Z,52.70
2018-06-04T15:00:55.101Z,54.20
2018-06-04T15:03:23.156Z,52.20
2018-06-04T15:05:52.585Z,52.80
2018-06-04T15:08:20.609Z,54.10
2018-06-04T15:10:48.628Z,54.00
2018-06-04T15:13:16.713Z,55.00
2018-06-04T15:15:44.786Z,54.20
2018-06-04T15:18:12.793Z,53.30
2018-06-04T15:20:40.926Z,53.80
2018-06-04T15:23:08.929Z,53.30
2018-06-04T15:28:04.787Z,52.70
2018-06-04T15:30:32.886Z,55.00
2018-06-04T15:33:00.905Z,56.00
2018-06-04T15:35:29.000Z,56.50
2018-06-04T15:37:57.061Z,57.50
2018-06-04T15:40:25.160Z,58.00
2018-06-04T15:42:53.187Z,58.30
2018-06-04T15:45:21.285Z,56.60
2018-06-04T15:47:49.342Z,55.60
2018-06-04T15:50:17.370Z,54.90
2018-06-04T15:52:45.390Z,55.30
2018-06-04T15:55:13.478Z,55.90
2018-06-04T15:57:41.496Z,55.70
2018-06-04T16:00:09.585Z,56.80
2018-06-04T16:05:05.408Z,55.50
2018-06-04T16:07:33.438Z,56.00
2018-06-04T16:10:01.472Z,56.60
2018-06-04T16:12:29.555Z,58.20
2018-06-04T16:14:57.638Z,60.00
2018-06-04T16:17:25.704Z,59.60
2018-06-04T16:19:53.746Z,61.00
2018-06-04T16:22:21.762Z,62.50
2018-06-04T16:24:49.788Z,64.00
2018-06-04T16:27:17.810Z,64.10
2018-06-04T16:29:45.858Z,62.50
2018-06-04T16:32:13.885Z,62.70
2018-06-04T16:34:41.917Z,62.60
2018-06-04T16:37:13.374Z,60.40
2018-06-04T16:39:41.354Z,60.40
2018-06-04T16:42:09.414Z,59.10
2018-06-04T16:44:37.428Z,58.20
2018-06-04T16:47:05.588Z,59.50
2018-06-04T16:49:33.658Z,58.60
2018-06-04T16:52:01.713Z,58.00
2018-06-04T16:54:29.768Z,58.90
2018-06-04T16:56:57.837Z,57.80
2018-06-04T16:59:25.916Z,58.20
2018-06-04T17:01:54.634Z,59.30
2018-06-04T17:04:23.112Z,59.60
2018-06-04T17:06:51.161Z,62.10
2018-06-04T17:09:19.234Z,64.10
2018-06-04T17:11:47.315Z,62.80
2018-06-04T17:14:15.378Z,62.50
2018-06-04T17:16:43.428Z,63.20
2018-06-04T17:19:11.657Z,63.60
2018-06-04T17:21:39.719Z,62.20
2018-06-04T17:24:07.778Z,62.50
2018-06-04T17:26:35.829Z,62.30
2018-06-04T17:29:04.377Z,63.00
2018-06-04T17:31:32.449Z,63.00
2018-06-04T17:34:00.522Z,63.10
2018-06-04T17:36:28.623Z,62.70
2018-06-04T17:38:56.609Z,63.60
2018-06-04T17:41:24.680Z,62.10
2018-06-04T17:43:52.782Z,59.90
2018-06-04T17:46:20.844Z,60.40
2018-06-04T17:48:48.895Z,61.80
2018-06-04T17:51:16.900Z,63.10
2018-06-04T17:53:45.182Z,64.00
2018-06-04T17:56:13.933Z,64.90
2018-06-04T17:58:41.975Z,66.90
2018-06-04T18:01:10.234Z,67.10
2018-06-04T18:03:38.365Z,65.60
2018-06-04T18:06:06.398Z,65.80
2018-06-04T18:11:02.225Z,65.20
2018-06-04T18:13:30.336Z,64.10
2018-06-04T18:15:58.369Z,63.20
2018-06-04T18:18:26.511Z,62.80
2018-06-04T18:20:54.541Z,63.60
2018-06-04T18:23:22.557Z,63.50
2018-06-04T18:25:50.599Z,64.40
2018-06-04T18:28:18.624Z,65.10
2018-06-04T18:30:46.749Z,65.60
2018-06-04T18:33:14.793Z,67.70
2018-06-04T18:35:42.995Z,66.30
2018-06-04T18:38:11.167Z,65.50
2018-06-04T18:40:39.216Z,67.50
2018-06-04T18:43:07.969Z,67.60
2018-06-04T18:45:36.102Z,69.20
2018-06-04T18:48:04.174Z,70.80
2018-06-04T18:50:32.189Z,72.90
2018-06-04T18:53:00.237Z,74.20
2018-06-04T18:55:28.300Z,76.50
2018-06-04T18:57:56.461Z,78.80
2018-06-04T19:00:24.477Z,80.20
2018-06-04T19:02:52.598Z,81.70
2018-06-04T19:05:20.694Z,83.70
2018-06-04T19:07:48.710Z,85.70
2018-06-04T19:10:16.797Z,87.10
2018-06-04T19:12:44.905Z,88.90
2018-06-04T19:15:12.958Z,90.40
2018-06-04T19:17:41.041Z,91.50
2018-06-04T19:20:09.053Z,92.70
2018-06-04T19:22:37.121Z,94.30
2018-06-04T19:25:05.156Z,95.80
2018-06-04T19:27:33.225Z,97.50
2018-06-04T19:30:01.293Z,99.40
2018-06-04T19:32:29.322Z,99.90
2018-06-04T19:34:57.336Z,99.90
2018-06-04T19:37:25.380Z,99.90
2018-06-04T19:39:53.445Z,99.90
2018-06-04T19:42:22.315Z,99.90
2018-06-04T19:44:50.478Z,99.90
2018-06-04T19:47:18.547Z,99.90
2018-06-04T19:49:46.614Z,99.90
2018-06-04T19:52:14.663Z,99.90
2018-06-04T19:54:42.741Z,99.90
2018-06-04T19:57:10.778Z,99.90
2018-06-04T19:59:38.915Z,99.90
2018-06-04T20:02:07.069Z,99.90
2018-06-04T20:04:36.191Z,99.90
2018-06-04T20:07:04.177Z,99.90
2018-06-04T20:09:32.217Z,99.90
2018-06-04T20:12:00.294Z,99.90
2018-06-04T20:16:58.492Z,99.90
2018-06-04T20:19:26.522Z,99.90
2018-06-04T20:21:54.524Z,99.90
2018-06-04T20:24:22.572Z,99.90
2018-06-04T20:26:50.589Z,99.90
2018-06-04T20:29:18.617Z,99.90
2018-06-04T20:31:51.207Z,99.90
2018-06-04T20:34:20.808Z,99.90
2018-06-04T20:36:50.089Z,99.90
2018-06-04T20:39:18.190Z,99.90
2018-06-04T20:41:46.262Z,99.90
2018-06-04T20:44:14.434Z,99.90
2018-06-04T20:46:42.448Z,99.90
2018-06-04T20:49:10.998Z,99.90
2018-06-04T20:51:39.041Z,99.90
2018-06-04T20:54:07.130Z,99.90
2018-06-04T20:56:35.196Z,99.90
2018-06-04T20:59:03.363Z,99.90
2018-06-04T21:01:31.453Z,99.90
2018-06-04T21:03:59.518Z,99.90
2018-06-04T21:06:27.501Z,99.90
2018-06-04T21:08:55.665Z,99.90
2018-06-04T21:11:23.734Z,99.90
2018-06-04T21:13:51.778Z,99.90
2018-06-04T21:16:19.895Z,99.90
2018-06-04T21:18:47.966Z,99.90
2018-06-04T21:21:16.031Z,99.90
2018-06-04T21:23:44.065Z,99.90
2018-06-04T21:26:12.155Z,99.90
2018-06-04T21:28:40.235Z,99.90
2018-06-04T21:31:08.310Z,99.90
2018-06-04T21:33:36.369Z,99.90
2018-06-04T21:36:04.658Z,99.90
2018-06-04T21:38:32.662Z,99.90
2018-06-04T21:41:00.811Z,99.90
2018-06-04T21:43:29.266Z,99.90
2018-06-04T21:45:57.362Z,99.90
2018-06-04T21:48:25.437Z,99.90
2018-06-04T21:50:53.498Z,99.90
2018-06-04T21:53:21.534Z,99.90
2018-06-04T21:55:49.647Z,99.90
2018-06-04T21:58:17.724Z,99.90
2018-06-04T22:00:45.751Z,99.90
2018-06-04T22:03:13.764Z,99.90
2018-06-04T22:05:41.841Z,99.90
2018-06-04T22:08:10.012Z,99.90
2018-06-04T22:10:38.085Z,99.90
2018-06-04T22:13:06.098Z,99.90
2018-06-04T22:15:34.128Z,99.90
2018-06-04T22:18:02.133Z,99.90
2018-06-04T22:20:30.176Z,99.90
2018-06-04T22:22:58.275Z,99.90
2018-06-04T22:25:26.317Z,99.90
2018-06-04T22:27:54.396Z,99.90
2018-06-04T22:30:22.449Z,99.90
2018-06-04T22:32:50.501Z,99.90
2018-06-04T22:35:18.736Z,99.90
2018-06-04T22:37:46.725Z,99.90
2018-06-04T22:40:14.816Z,99.90
2018-06-04T22:42:42.920Z,99.90
2018-06-04T22:45:10.924Z,99.90
2018-06-04T22:47:38.967Z,99.90
2018-06-04T22:50:07.068Z,99.90
2018-06-04T22:52:35.100Z,99.90
2018-06-04T22:55:03.215Z,99.90
2018-06-04T22:57:31.235Z,99.90
2018-06-04T22:59:59.264Z,99.90
2018-06-04T23:02:27.318Z,99.90
2018-06-04T23:04:55.332Z,99.90
2018-06-04T23:07:23.437Z,99.90
2018-06-04T23:09:51.545Z,99.90
2018-06-04T23:12:19.556Z,99.90
2018-06-04T23:14:47.578Z,99.90
2018-06-04T23:17:15.648Z,99.90
2018-06-04T23:19:43.670Z,99.90
2018-06-04T23:22:11.700Z,99.90
2018-06-04T23:24:39.755Z,99.90
2018-06-04T23:27:07.804Z,99.90
2018-06-04T23:29:35.899Z,99.90
2018-06-04T23:32:03.946Z,99.90
2018-06-04T23:34:32.027Z,99.90
2018-06-04T23:37:00.146Z,99.90
2018-06-04T23:39:28.173Z,99.90
2018-06-04T23:41:56.205Z,99.90
2018-06-04T23:44:24.290Z,99.90
2018-06-04T23:46:52.324Z,99.90
2018-06-04T23:49:24.712Z,99.90
2018-06-04T23:51:52.941Z,99.90
2018-06-04T23:54:20.972Z,99.90
2018-06-04T23:56:49.085Z,99.90
2018-06-04T23:59:17.131Z,99.90
